createdAt,value
2019-02-19T00:02:51.970Z,8.35
2019-02-19T00:07:54.658Z,8.30
2019-02-19T00:12:58.749Z,8.60
2019-02-19T00:18:00.769Z,8.53
2019-02-19T00:23:02.913Z,8.30
2019-02-19T00:28:06.473Z,8.13
2019-02-19T00:33:08.931Z,8.10
2019-02-19T00:38:10.952Z,7.99
2019-02-19T00:43:12.932Z,7.98
2019-02-19T00:48:14.935Z,7.89
2019-02-19T00:53:16.970Z,7.83
2019-02-19T00:58:19.239Z,7.78
2019-02-19T01:03:23.384Z,7.69
2019-02-19T01:08:25.478Z,7.81
2019-02-19T01:13:27.753Z,7.60
2019-02-19T01:18:31.785Z,7.65
2019-02-19T01:23:34.268Z,7.61
2019-02-19T01:28:36.397Z,7.65
2019-02-19T01:33:38.670Z,7.69
2019-02-19T01:38:43.462Z,7.69
2019-02-19T01:43:45.468Z,7.62
2019-02-19T01:48:50.593Z,7.61
2019-02-19T01:53:52.929Z,7.66
2019-02-19T01:58:55.217Z,7.67
2019-02-19T02:03:57.378Z,7.65
2019-02-19T02:08:59.388Z,7.67
2019-02-19T02:14:01.622Z,7.64
2019-02-19T02:19:03.641Z,7.53
2019-02-19T02:24:05.954Z,7.55
2019-02-19T02:29:08.165Z,7.46
2019-02-19T02:34:10.784Z,7.42
2019-02-19T02:39:12.771Z,7.40
2019-02-19T02:44:14.839Z,7.43
2019-02-19T02:49:16.854Z,7.31
2019-02-19T02:54:18.872Z,7.30
2019-02-19T02:59:22.138Z,7.23
2019-02-19T03:04:25.385Z,7.22
2019-02-19T03:09:27.378Z,7.46
2019-02-19T03:14:29.407Z,7.28
2019-02-19T03:19:32.971Z,7.11
2019-02-19T03:24:35.021Z,7.12
2019-02-19T03:29:38.273Z,6.99
2019-02-19T03:34:42.604Z,7.07
2019-02-19T03:39:44.617Z,6.86
2019-02-19T03:44:46.634Z,6.83
2019-02-19T03:49:53.978Z,6.91
2019-02-19T03:54:56.046Z,6.93
2019-02-19T03:59:58.503Z,6.70
2019-02-19T04:05:00.516Z,6.74
2019-02-19T04:10:04.549Z,6.59
2019-02-19T04:15:07.779Z,6.60
2019-02-19T04:20:10.002Z,6.50
2019-02-19T04:25:12.042Z,6.46
2019-02-19T04:30:14.070Z,6.27
2019-02-19T04:35:18.760Z,6.31
2019-02-19T04:40:20.997Z,6.23
2019-02-19T04:45:22.977Z,6.15
2019-02-19T04:50:25.322Z,6.16
2019-02-19T04:55:27.312Z,5.91
2019-02-19T05:00:29.336Z,5.85
2019-02-19T05:05:31.576Z,5.92
2019-02-19T05:10:33.580Z,5.92
2019-02-19T05:15:35.590Z,5.90
2019-02-19T05:20:40.233Z,5.83
2019-02-19T05:25:42.234Z,5.90
2019-02-19T05:30:44.672Z,5.76
2019-02-19T05:35:46.690Z,5.88
2019-02-19T05:40:48.905Z,6.30
2019-02-19T05:45:52.292Z,5.86
2019-02-19T05:50:54.446Z,5.69
2019-02-19T05:55:56.512Z,5.72
2019-02-19T06:00:58.690Z,5.73
2019-02-19T06:06:01.919Z,5.59
2019-02-19T06:11:04.155Z,5.60
2019-02-19T06:16:06.197Z,5.49
2019-02-19T06:21:08.440Z,5.50
2019-02-19T06:26:10.859Z,5.54
2019-02-19T06:31:15.490Z,5.68
2019-02-19T06:36:21.944Z,5.66
2019-02-19T06:41:24.016Z,5.64
2019-02-19T06:46:26.051Z,5.65
2019-02-19T06:51:31.315Z,5.72
2019-02-19T06:56:43.461Z,5.72
2019-02-19T07:02:05.585Z,5.82
2019-02-19T07:07:07.592Z,5.68
2019-02-19T07:12:18.499Z,5.87
2019-02-19T07:17:22.891Z,5.73
2019-02-19T07:22:25.039Z,6.12
2019-02-19T07:27:27.200Z,6.05
2019-02-19T07:32:29.303Z,6.03
2019-02-19T07:37:37.565Z,6.20
2019-02-19T07:42:39.615Z,6.29
2019-02-19T07:47:43.919Z,6.53
2019-02-19T07:52:46.288Z,6.35
2019-02-19T07:57:48.276Z,6.47
2019-02-19T08:02:56.492Z,6.69
2019-02-19T08:08:00.564Z,6.60
2019-02-19T08:13:04.435Z,6.82
2019-02-19T08:18:06.462Z,7.09
2019-02-19T08:23:09.288Z,7.19
2019-02-19T08:28:16.613Z,7.35
2019-02-19T08:33:19.091Z,7.29
2019-02-19T08:38:21.147Z,7.46
2019-02-19T08:43:23.434Z,7.31
2019-02-19T08:48:26.535Z,7.74
2019-02-19T08:53:28.835Z,7.49
2019-02-19T08:58:30.844Z,7.55
2019-02-19T09:03:33.114Z,7.54
2019-02-19T09:08:35.133Z,7.79
2019-02-19T09:13:37.374Z,8.27
2019-02-19T09:18:39.376Z,8.25
2019-02-19T09:23:46.755Z,8.19
2019-02-19T09:28:48.935Z,8.51
2019-02-19T09:33:50.965Z,8.38
2019-02-19T09:38:53.205Z,8.78
2019-02-19T09:43:55.190Z,9.42
2019-02-19T09:48:57.199Z,9.55
2019-02-19T09:54:01.113Z,9.31
2019-02-19T09:59:05.215Z,9.18
2019-02-19T10:04:07.380Z,9.28
2019-02-19T10:09:09.386Z,9.77
2019-02-19T10:14:11.480Z,9.57
2019-02-19T10:19:13.571Z,9.49
2019-02-19T10:24:15.607Z,9.40
2019-02-19T10:29:18.005Z,9.20
2019-02-19T10:34:20.402Z,9.48
2019-02-19T10:39:22.455Z,10.50
2019-02-19T10:44:24.431Z,10.42
2019-02-19T10:49:26.444Z,10.32
2019-02-19T10:54:34.605Z,10.56
2019-02-19T10:59:36.901Z,10.56
2019-02-19T11:04:40.039Z,10.90
2019-02-19T11:09:42.139Z,10.80
2019-02-19T11:14:44.156Z,11.01
2019-02-19T11:19:46.184Z,10.95
2019-02-19T11:24:48.236Z,11.29
2019-02-19T11:29:50.342Z,10.92
2019-02-19T11:34:52.356Z,11.26
2019-02-19T11:39:57.090Z,11.16
2019-02-19T11:45:00.555Z,11.25
2019-02-19T11:50:05.269Z,11.05
2019-02-19T11:55:08.944Z,11.21
2019-02-19T12:00:14.161Z,11.40
2019-02-19T12:05:16.210Z,11.39
2019-02-19T12:10:18.238Z,11.39
2019-02-19T12:15:20.278Z,11.21
2019-02-19T12:20:22.342Z,11.21
2019-02-19T12:25:24.363Z,11.52
2019-02-19T12:30:26.363Z,11.32
2019-02-19T12:35:28.650Z,11.32
2019-02-19T12:40:36.742Z,11.65
2019-02-19T12:45:38.814Z,11.82
2019-02-19T12:50:43.881Z,11.31
2019-02-19T12:55:46.139Z,11.44
2019-02-19T13:00:48.285Z,11.70
2019-02-19T13:05:50.306Z,11.57
2019-02-19T13:10:52.339Z,11.55
2019-02-19T13:15:54.358Z,11.71
2019-02-19T13:20:56.659Z,11.27
2019-02-19T13:25:58.707Z,11.44
2019-02-19T13:31:00.906Z,11.40
2019-02-19T13:36:02.901Z,11.49
2019-02-19T13:41:05.269Z,11.41
2019-02-19T13:46:07.311Z,11.19
2019-02-19T13:51:09.912Z,11.19
2019-02-19T13:56:11.995Z,11.39
2019-02-19T14:01:14.076Z,11.27
2019-02-19T14:06:16.086Z,11.40
2019-02-19T14:11:20.492Z,11.22
2019-02-19T14:16:29.592Z,11.22
2019-02-19T14:21:57.640Z,11.28
2019-02-19T14:27:20.121Z,11.37
2019-02-19T14:32:45.270Z,10.98
2019-02-19T14:38:05.330Z,10.65
2019-02-19T14:43:32.989Z,10.52
2019-02-19T14:49:10.101Z,10.80
2019-02-19T14:54:37.255Z,10.71
2019-02-19T15:00:17.161Z,10.58
2019-02-19T15:05:41.650Z,10.56
2019-02-19T15:11:12.329Z,10.58
2019-02-19T15:16:30.049Z,10.68
2019-02-19T15:21:40.690Z,10.63
2019-02-19T15:27:09.215Z,10.18
2019-02-19T15:32:29.413Z,9.95
2019-02-19T15:37:49.619Z,9.81
2019-02-19T15:43:11.570Z,9.80
2019-02-19T15:48:51.964Z,9.71
2019-02-19T15:54:18.840Z,9.79
2019-02-19T15:59:38.811Z,9.78
2019-02-19T16:04:51.013Z,9.65
2019-02-19T16:10:12.720Z,9.58
2019-02-19T16:15:20.807Z,9.55
2019-02-19T16:20:38.120Z,9.24
2019-02-19T16:26:08.501Z,9.34
2019-02-19T16:31:33.414Z,9.28
2019-02-19T16:36:55.194Z,8.99
2019-02-19T16:42:12.265Z,8.89
2019-02-19T16:47:24.219Z,8.84
2019-02-19T16:52:31.190Z,8.74
2019-02-19T16:57:58.800Z,8.49
2019-02-19T17:03:26.645Z,8.46
2019-02-19T17:08:53.616Z,8.27
2019-02-19T17:14:32.689Z,8.37
2019-02-19T17:19:56.815Z,8.28
2019-02-19T17:25:17.571Z,8.04
2019-02-19T17:30:40.754Z,8.06
2019-02-19T17:36:10.297Z,7.90
2019-02-19T17:41:37.985Z,7.79
2019-02-19T17:47:16.212Z,7.93
2019-02-19T17:52:37.878Z,7.82
2019-02-19T17:57:59.496Z,7.69
2019-02-19T18:03:13.007Z,7.61
2019-02-19T18:08:33.833Z,7.67
2019-02-19T18:13:57.134Z,7.64
2019-02-19T18:18:59.191Z,7.75
2019-02-19T18:24:01.230Z,7.60
2019-02-19T18:29:04.287Z,7.46
2019-02-19T18:34:07.160Z,7.45
2019-02-19T18:39:09.276Z,7.36
2019-02-19T18:44:11.325Z,7.26
2019-02-19T18:49:16.573Z,7.23
2019-02-19T18:54:21.836Z,7.27
2019-02-19T18:59:25.587Z,7.10
2019-02-19T19:04:27.931Z,7.15
2019-02-19T19:09:29.933Z,7.04
2019-02-19T19:14:31.947Z,7.07
2019-02-19T19:19:34.079Z,6.97
2019-02-19T19:24:36.434Z,6.93
2019-02-19T19:29:42.791Z,6.90
2019-02-19T19:34:45.115Z,6.81
2019-02-19T19:39:47.473Z,6.81
2019-02-19T19:44:49.693Z,6.95
2019-02-19T19:49:51.858Z,7.02
2019-02-19T19:54:53.897Z,6.88
2019-02-19T20:00:00.324Z,6.89
2019-02-19T20:05:02.386Z,6.88
2019-02-19T20:10:05.891Z,6.93
2019-02-19T20:15:08.591Z,6.95
2019-02-19T20:20:10.620Z,6.97
2019-02-19T20:25:12.700Z,7.06
2019-02-19T20:30:19.781Z,6.89
2019-02-19T20:35:22.229Z,6.86
2019-02-19T20:40:24.544Z,6.78
2019-02-19T20:45:26.721Z,6.79
2019-02-19T20:50:28.904Z,6.69
2019-02-19T20:55:36.864Z,6.62
2019-02-19T21:00:40.515Z,6.72
2019-02-19T21:05:42.727Z,6.62
2019-02-19T21:10:44.773Z,6.54
2019-02-19T21:15:46.944Z,6.56
2019-02-19T21:20:50.844Z,6.67
2019-02-19T21:25:53.092Z,6.73
2019-02-19T21:30:55.349Z,6.69
2019-02-19T21:35:58.005Z,6.65
2019-02-19T21:41:00.299Z,6.74
2019-02-19T21:46:02.268Z,6.72
2019-02-19T21:51:07.438Z,6.68
2019-02-19T21:56:11.517Z,6.74
2019-02-19T22:01:18.726Z,6.67
2019-02-19T22:06:23.664Z,6.80
2019-02-19T22:11:26.841Z,6.67
2019-02-19T22:16:30.096Z,6.63
2019-02-19T22:22:03.436Z,6.73
2019-02-19T22:27:03.084Z,6.60
2019-02-19T22:32:06.315Z,6.70
2019-02-19T22:37:08.313Z,6.72
2019-02-19T22:42:10.404Z,6.69
2019-02-19T22:47:12.408Z,6.74
2019-02-19T22:52:15.719Z,6.76
2019-02-19T22:57:18.010Z,6.61
2019-02-19T23:02:22.730Z,6.64
2019-02-19T23:07:27.757Z,6.78
2019-02-19T23:12:29.965Z,6.80
2019-02-19T23:17:31.956Z,6.80
2019-02-19T23:22:34.276Z,6.77
2019-02-19T23:27:36.292Z,6.88
2019-02-19T23:32:38.707Z,6.87
2019-02-19T23:37:40.714Z,6.91
2019-02-19T23:42:42.749Z,6.91
2019-02-19T23:47:44.745Z,6.90
2019-02-19T23:52:47.033Z,6.98
2019-02-19T23:57:49.040Z,7.15
